Time;durP1;ratioP1;P1;durP2;ratioP2;P2;SDS_P1;SDS_P2;PMS_P1;PMS_P2;Temp;Humidity;BMP_temperature;BMP_pressure;BME280_temperature;BME280_humidity;BME280_pressure;Samples;Min_cycle;Max_cycle;Signal;HPM_P1;HPM_P2
2023/04/01 00:02:20;;;;;;;;;;;;;;;7.28;94.79;95863.97;5032513;28;19925;-60
2023/04/01 00:04:47;;;;;;;3.50;0.93;;;;;;;7.21;95.43;95870.66;5026040;28;19925;-59
2023/04/01 00:07:14;;;;;;;3.45;0.55;;;;;;;7.27;94.67;95867.72;5024444;28;20041;-60
2023/04/01 00:09:40;;;;;;;3.53;0.70;;;;;;;7.34;94.70;95880.13;5023843;28;20065;-60
2023/04/01 00:12:07;;;;;;;;;;;;;;;7.33;95.49;95878.50;5023515;28;20525;-61
2023/04/01 00:14:34;;;;;;;;;;;;;;;7.40;95.59;95884.41;5024847;28;19920;-60
2023/04/01 00:17:01;;;;;;;;;;;;;;;7.24;96.41;95876.34;5026376;28;19928;-57
2023/04/01 00:19:28;;;;;;;;;;;;;;;7.15;97.36;95876.03;5023099;28;19920;-61
2023/04/01 00:21:54;;;;;;;3.60;0.70;;;;;;;7.21;97.15;95873.34;5024932;28;19959;-57
2023/04/01 00:24:20;;;;;;;;;;;;;;;7.19;96.90;95873.63;5027748;28;19932;-57
2023/04/01 00:26:47;;;;;;;;;;;;;;;7.19;96.83;95875.53;5020210;28;19967;-60
2023/04/01 00:29:14;;;;;;;;;;;;;;;7.23;96.16;95873.91;5021378;28;20300;-60
2023/04/01 00:31:40;;;;;;;2.30;0.35;;;;;;;7.23;96.02;95882.78;5021893;28;19956;-60
2023/04/01 00:34:07;;;;;;;;;;;;;;;7.36;93.84;95876.06;5029580;28;20809;-61
2023/04/01 00:36:33;;;;;;;;;;;;;;;7.42;92.51;95884.97;5023483;28;19984;-60
2023/04/01 00:39:00;;;;;;;;;;;;;;;7.42;92.61;95879.59;5021167;28;19932;-60
2023/04/01 00:41:27;;;;;;;4.28;0.73;;;;;;;7.42;92.44;95899.22;5020432;28;19959;-58
2023/04/01 00:44:16;;;;;;;1.45;0.30;;;;;;;7.46;93.10;95886.06;5019063;28;20065;-60
2023/04/01 00:46:42;;;;;;;3.38;0.50;;;;;;;7.51;91.16;95891.44;5019371;28;20448;-58
2023/04/01 00:49:09;;;;;;;3.30;1.00;;;;;;;7.71;89.66;95886.31;5031116;28;20061;-61
2023/04/01 00:51:37;;;;;;;;;;;;;;;7.80;89.30;95890.09;5025182;28;20076;-60
2023/04/01 00:54:05;;;;;;;;;;;;;;;7.88;89.21;95881.44;5021277;28;19929;-59
2023/04/01 00:56:31;;;;;;;;;;;;;;;7.88;87.27;95886.03;5026384;28;19963;-60
2023/04/01 00:59:00;;;;;;;;;;;;;;;7.87;88.79;95879.84;5044980;28;19936;-60
2023/04/01 01:01:28;;;;;;;;;;;;;;;7.87;88.05;95881.72;5020715;28;19921;-59
2023/04/01 01:03:55;;;;;;;;;;;;;;;7.72;89.23;95883.34;5021960;28;20341;-58
2023/04/01 01:06:30;;;;;;;;;;;;;;;7.79;89.52;95885.78;5025792;28;20444;-59
2023/04/01 01:09:26;;;;;;;;;;;;;;;7.67;91.30;95877.97;5024301;28;19956;-58
2023/04/01 01:11:58;;;;;;;;;;;;;;;7.52;93.61;95882.28;5009840;28;19921;-60
2023/04/01 01:14:24;;;;;;;;;;;;;;;7.48;92.90;95891.19;5025868;28;20573;-59
2023/04/01 01:16:56;;;;;;;;;;;;;;;7.49;93.35;95882.81;5023090;28;19929;-59
2023/04/01 01:19:32;;;;;;;;;;;;;;;7.52;92.01;95901.13;5017943;28;20440;-58
2023/04/01 01:22:06;;;;;;;;;;;;;;;7.72;87.83;95872.59;5023846;28;20012;-60
2023/04/01 01:24:41;;;;;;;;;;;;;;;7.55;91.63;95870.16;5028766;28;19998;-60
2023/04/01 01:27:09;;;;;;;;;;;;;;;7.63;88.76;95879.59;5026371;28;19928;-60
2023/04/01 01:29:50;;;;;;;;;;;;;;;7.80;88.46;95877.44;5031691;28;19921;-60
2023/04/01 01:32:30;;;;;;;0.90;0.30;;;;;;;7.90;86.71;95875.78;5029210;28;20380;-61
2023/04/01 01:35:18;;;;;;;4.00;0.52;;;;;;;7.79;88.10;95888.47;5021295;28;20065;-60
2023/04/01 01:37:49;;;;;;;1.67;0.38;;;;;;;7.75;89.74;95887.41;5019619;28;20100;-60
2023/04/01 01:40:16;;;;;;;1.92;0.30;;;;;;;7.64;91.04;95892.81;5027785;28;20053;-59
2023/04/01 01:42:46;;;;;;;;;;;;;;;7.53;92.92;95891.97;5020566;28;20042;-57
2023/04/01 01:45:17;;;;;;;1.92;0.30;;;;;;;7.48;94.13;95888.47;5027247;28;20020;-59
2023/04/01 01:47:47;;;;;;;1.70;0.40;;;;;;;7.41;95.13;95888.75;5026007;28;20128;-61
2023/04/01 01:50:15;;;;;;;2.15;0.38;;;;;;;7.39;95.55;95885.50;5027855;28;20044;-59
2023/04/01 01:52:42;;;;;;;3.47;0.55;;;;;;;7.42;95.89;95890.34;5025278;28;20049;-61
2023/04/01 01:55:34;;;;;;;4.13;0.57;;;;;;;7.31;97.25;95884.16;5024846;28;20474;-61
2023/04/01 01:58:08;;;;;;;0.82;0.25;;;;;;;7.25;97.60;95872.56;5023983;28;20135;-61
2023/04/01 02:00:38;;;;;;;2.00;0.35;;;;;;;7.27;97.14;95883.06;5025987;28;20037;-60
2023/04/01 02:03:05;;;;;;;1.15;0.30;;;;;;;7.30;97.47;95877.16;5025817;28;20103;-60
2023/04/01 02:05:32;;;;;;;1.95;0.30;;;;;;;7.24;97.46;95884.41;5024971;28;20037;-59
2023/04/01 02:08:40;;;;;;;0.98;0.32;;;;;;;7.49;93.25;95885.50;5028479;28;20053;-61
2023/04/01 02:11:15;;;;;;;1.10;0.20;;;;;;;7.47;92.69;95873.38;5016364;28;20057;-59
2023/04/01 02:13:58;;;;;;;1.58;0.50;;;;;;;7.40;93.40;95876.34;5020565;28;20056;-59
2023/04/01 02:16:34;;;;;;;1.15;0.30;;;;;;;7.38;93.14;95868.53;5021510;28;20049;-59
2023/04/01 02:19:07;;;;;;;2.67;0.60;;;;;;;7.36;93.20;95868.00;5022029;28;20045;-57
2023/04/01 02:21:35;;;;;;;2.05;0.35;;;;;;;7.47;92.07;95876.06;5012646;28;20042;-59
2023/04/01 02:24:06;;;;;;;1.65;0.50;;;;;;;7.31;93.06;95870.69;5028062;28;20061;-60
2023/04/01 02:26:34;;;;;;;;;;;;;;;7.25;94.14;95871.75;5023328;28;20103;-59
2023/04/01 02:29:03;;;;;;;0.52;0.30;;;;;;;7.25;93.04;95872.56;5019362;28;19924;-60
2023/04/01 02:31:31;;;;;;;1.98;0.50;;;;;;;7.23;92.74;95879.28;5016466;28;20084;-59
2023/04/01 02:33:58;;;;;;;4.53;0.55;;;;;;;7.27;92.70;95881.16;5026033;28;21568;-58
2023/04/01 02:36:25;;;;;;;3.92;0.63;;;;;;;7.30;93.56;95877.16;5015662;28;20045;-58
2023/04/01 02:38:52;;;;;;;4.60;0.90;;;;;;;7.26;92.90;95887.63;5023099;28;20046;-58
2023/04/01 02:41:19;;;;;;;3.53;0.50;;;;;;;7.26;92.55;95884.94;5019020;28;20037;-59
2023/04/01 02:43:45;;;;;;;1.33;0.40;;;;;;;7.24;92.67;95891.69;5025002;28;20099;-59
2023/04/01 02:46:12;;;;;;;2.95;0.50;;;;;;;7.26;92.51;95889.53;5022141;28;20095;-60
2023/04/01 02:48:38;;;;;;;3.28;0.45;;;;;;;7.16;92.51;95891.13;5019907;28;20050;-59
2023/04/01 02:51:05;;;;;;;2.83;0.47;;;;;;;7.23;91.10;95887.38;5021474;28;20049;-60
2023/04/01 02:53:32;;;;;;;1.33;0.40;;;;;;;7.23;92.52;95882.78;5022810;28;20041;-59
2023/04/01 02:55:58;;;;;;;4.37;0.77;;;;;;;7.10;93.35;95880.59;5026505;28;20103;-61
2023/04/01 02:58:24;;;;;;;1.63;0.38;;;;;;;7.15;92.58;95876.03;5019528;28;20424;-61
2023/04/01 03:00:51;;;;;;;1.65;0.30;;;;;;;7.12;92.73;95884.66;5018950;28;20049;-56
2023/04/01 03:03:18;;;;;;;3.90;0.60;;;;;;;7.16;92.95;95884.94;5020916;28;20037;-60
2023/04/01 03:05:44;;;;;;;;;;;;;;;7.16;92.86;95882.25;5021098;28;20504;-60
2023/04/01 03:08:11;;;;;;;;;;;;;;;7.08;94.66;95877.38;5021480;28;19979;-59
2023/04/01 03:10:38;;;;;;;;;;;;;;;6.98;94.30;95892.44;5019673;28;19968;-59
2023/04/01 03:13:04;;;;;;;;;;;;;;;6.90;95.84;95882.19;5019048;28;19929;-59
2023/04/01 03:15:30;;;;;;;;;;;;;;;6.84;96.54;95876.00;5019080;28;19924;-60
2023/04/01 03:17:57;;;;;;;;;;;;;;;6.67;97.81;95878.09;5020022;28;20000;-57
2023/04/01 03:20:24;;;;;;;;;;;;;;;6.70;98.65;95888.31;5019260;28;19943;-60
2023/04/01 03:22:50;;;;;;;;;;;;;;;6.79;97.45;95885.91;5027223;28;20559;-60
2023/04/01 03:25:17;;;;;;;;;;;;;;;6.59;99.68;95887.44;5019893;28;20453;-60
2023/04/01 03:27:44;;;;;;;;;;;;;;;6.69;98.92;95882.13;5019595;28;20149;-59
2023/04/01 03:30:11;;;;;;;;;;;;;;;6.48;100.00;95873.16;5029637;28;19925;-59
2023/04/01 03:32:46;;;;;;;;;;;;;;;6.46;100.00;95878.81;5026802;28;20320;-58
2023/04/01 03:35:12;;;;;;;;;;;;;;;6.49;100.00;95882.88;5025623;28;19928;-59
2023/04/01 03:37:39;;;;;;;;;;;;;;;6.48;100.00;95873.16;5026251;28;20354;-61
2023/04/01 03:40:06;;;;;;;;;;;;;;;6.43;100.00;95873.97;5020901;28;20471;-57
2023/04/01 03:42:32;;;;;;;;;;;;;;;6.46;100.00;95872.63;5019915;28;19925;-59
2023/04/01 03:44:59;;;;;;;;;;;;;;;6.46;100.00;95867.25;5018400;28;20004;-61
2023/04/01 03:47:25;;;;;;;;;;;;;;;6.41;100.00;95868.03;5021023;28;20012;-58
2023/04/01 03:49:52;;;;;;;;;;;;;;;6.54;99.03;95868.63;5021746;28;20388;-56
2023/04/01 03:52:18;;;;;;;;;;;;;;;6.55;98.51;95865.66;5022039;28;19929;-59
2023/04/01 03:54:45;;;;;;;;;;;;;;;6.50;99.17;95868.34;5016774;28;20011;-59
2023/04/01 03:57:11;;;;;;;;;;;;;;;6.57;98.50;95865.41;5021461;28;19929;-60
2023/04/01 03:59:38;;;;;;;;;;;;;;;6.62;98.25;95865.41;5017989;28;19972;-60
2023/04/01 04:02:05;;;;;;;;;;;;;;;6.54;98.74;95865.94;5022072;28;20126;-60
2023/04/01 04:04:31;;;;;;;;;;;;;;;6.54;98.32;95866.75;5034554;28;19979;-59
2023/04/01 04:06:58;;;;;;;;;;;;;;;6.63;97.12;95853.59;5029586;28;19929;-58
2023/04/01 04:09:26;;;;;;;;;;;;;;;6.73;96.13;95856.31;5034676;28;19982;-60
2023/04/01 04:11:53;;;;;;;;;;;;;;;6.72;96.31;95845.81;5027367;28;19925;-60
2023/04/01 04:14:19;;;;;;;;;;;;;;;6.75;96.28;95853.38;5021402;28;20647;-59
2023/04/01 04:16:47;;;;;;;;;;;;;;;6.79;95.60;95856.31;5017942;28;20712;-58
2023/04/01 04:19:13;;;;;;;;;;;;;;;6.80;95.21;95852.56;5019879;28;19926;-59
2023/04/01 04:21:41;;;;;;;;;;;;;;;6.79;95.15;95853.63;5022268;28;19931;-61
2023/04/01 04:24:07;;;;;;;;;;;;;;;6.81;95.07;95852.28;5017443;28;19925;-60
2023/04/01 04:26:58;;;;;;;;;;;;;;;6.84;95.72;95851.78;5024951;28;21653;-60
2023/04/01 04:29:25;;;;;;;;;;;;;;;6.77;96.14;95851.22;5024743;28;19925;-60
2023/04/01 04:31:51;;;;;;;;;;;;;;;6.74;95.65;95854.41;5020842;28;19936;-62
2023/04/01 04:34:18;;;;;;;;;;;;;;;6.75;96.72;95858.75;5013533;28;19960;-58
2023/04/01 04:36:45;;;;;;;;;;;;;;;6.73;96.48;95848.25;5018267;28;20016;-60
2023/04/01 04:39:12;;;;;;;;;;;;;;;6.62;97.46;95851.97;5028155;28;20415;-60
2023/04/01 04:41:40;;;;;;;;;;;;;;;6.57;98.41;95850.09;5023529;28;20466;-61
2023/04/01 04:44:06;;;;;;;;;;;;;;;6.55;97.74;95854.09;5018395;28;19955;-61
2023/04/01 04:46:33;;;;;;;;;;;;;;;6.62;97.48;95847.41;5039848;28;19925;-61
2023/04/01 04:49:09;;;;;;;1.15;0.40;;;;;;;6.66;97.16;95849.59;5017061;28;19925;-61
2023/04/01 04:51:36;;;;;;;2.10;1.00;;;;;;;6.63;97.15;95838.25;5024382;28;20525;-60
2023/04/01 04:54:03;;;;;;;3.10;0.50;;;;;;;6.69;96.51;95849.03;5030452;28;20068;-61
2023/04/01 04:56:46;;;;;;;2.03;0.50;;;;;;;6.56;97.60;95845.75;5023660;28;20064;-61
2023/04/01 04:59:14;;;;;;;1.30;0.52;;;;;;;6.60;96.53;95857.63;5028037;28;20143;-60
2023/04/01 05:01:47;;;;;;;1.05;0.20;;;;;;;6.70;96.14;95837.19;5023635;28;20045;-61
2023/04/01 05:04:13;;;;;;;2.60;0.30;;;;;;;6.64;97.02;95831.00;5025548;28;20504;-61
2023/04/01 05:06:40;;;;;;;2.25;0.60;;;;;;;6.62;97.50;95838.53;5026486;28;20073;-60
2023/04/01 05:09:06;;;;;;;3.35;0.45;;;;;;;6.64;97.01;95831.00;5031898;28;20045;-60
2023/04/01 05:11:33;;;;;;;2.63;0.57;;;;;;;6.60;96.80;95840.69;5023388;28;20052;-60
2023/04/01 05:13:59;;;;;;;2.78;1.27;;;;;;;6.70;95.24;95835.31;5018477;28;20142;-61
2023/04/01 05:16:26;;;;;;;2.67;0.50;;;;;;;6.66;95.52;95852.28;5025764;28;20603;-60
2023/04/01 05:18:53;;;;;;;1.20;0.40;;;;;;;6.75;94.42;95850.69;5006092;28;20809;-61
2023/04/01 05:21:19;;;;;;;2.17;0.30;;;;;;;6.69;96.04;95849.03;5025788;28;20042;-61
2023/04/01 05:23:46;;;;;;;1.90;0.25;;;;;;;6.75;95.14;95848.00;5012164;28;20555;-58
2023/04/01 05:26:14;;;;;;;1.92;0.35;;;;;;;6.78;94.91;95843.97;5025063;28;20137;-60
2023/04/01 05:28:41;;;;;;;3.55;0.50;;;;;;;6.68;96.32;95832.09;5022240;28;20345;-61
2023/04/01 05:31:09;;;;;;;4.35;0.50;;;;;;;6.67;95.90;95830.47;5025185;28;20119;-58
2023/04/01 05:33:38;;;;;;;4.53;0.50;;;;;;;6.70;96.43;95829.13;5026262;28;20045;-60
2023/04/01 05:36:15;;;;;;;1.05;0.40;;;;;;;6.82;95.68;95818.94;5033251;28;20068;-60
2023/04/01 05:38:45;;;;;;;2.60;0.70;;;;;;;6.80;95.58;95817.59;5043411;28;20398;-59
2023/04/01 05:41:13;;;;;;;3.20;0.40;;;;;;;6.79;95.20;95813.28;5023741;28;20069;-60
2023/04/01 05:43:43;;;;;;;3.53;0.55;;;;;;;6.84;95.14;95818.66;5022914;28;20052;-60
2023/04/01 05:46:29;;;;;;;4.60;0.98;;;;;;;6.85;94.88;95818.41;5020747;28;20559;-60
2023/04/01 05:49:02;;;;;;;1.92;0.47;;;;;;;6.98;94.18;95818.97;5038519;28;20076;-60
2023/04/01 05:51:30;;;;;;;2.42;0.43;;;;;;;7.07;92.57;95816.56;5021569;28;20124;-59
2023/04/01 05:53:56;;;;;;;1.50;0.50;;;;;;;7.21;92.71;95814.13;5022528;28;20107;-57
2023/04/01 05:56:22;;;;;;;1.63;0.40;;;;;;;7.32;93.29;95817.63;5021319;28;20053;-59
2023/04/01 05:58:53;;;;;;;1.48;0.50;;;;;;;7.40;91.66;95817.09;5019956;28;20463;-58
2023/04/01 06:01:21;;;;;;;;;;;;;;;7.36;92.38;95813.31;5022140;28;20073;-57
2023/04/01 06:03:48;;;;;;;;;;;;;;;7.33;91.86;95820.06;5025092;28;19933;-54
2023/04/01 06:06:24;;;;;;;;;;;;;;;7.33;92.17;95820.06;5023160;28;19925;-54
2023/04/01 06:08:57;;;;;;;1.95;0.47;;;;;;;7.28;92.47;95826.28;5016920;28;19964;-53
2023/04/01 06:11:34;;;;;;;3.92;0.45;;;;;;;7.23;92.18;95815.47;5024932;28;20041;-61
2023/04/01 06:14:11;;;;;;;1.75;0.40;;;;;;;7.35;91.61;95827.88;5024642;28;20099;-61
2023/04/01 06:16:56;;;;;;;2.28;0.80;;;;;;;7.34;92.14;95821.66;5022543;28;20095;-62
2023/04/01 06:19:53;;;;;;;1.42;0.30;;;;;;;7.31;91.63;95819.53;5023436;28;20038;-61
2023/04/01 06:22:26;;;;;;;2.97;0.50;;;;;;;7.26;93.31;95814.94;5019102;28;20063;-61
2023/04/01 06:24:59;;;;;;;6.63;1.75;;;;;;;7.14;94.10;95828.69;5025688;28;20045;-61
2023/04/01 06:27:42;;;;;;;1.67;0.57;;;;;;;7.12;94.84;95833.50;5025559;28;20056;-60
2023/04/01 06:30:32;;;;;;;1.13;0.45;;;;;;;7.16;94.10;95826.50;5017440;28;20041;-59
2023/04/01 06:33:14;;;;;;;0.75;0.30;;;;;;;7.01;95.53;95829.22;5020191;28;21025;-59
2023/04/01 06:35:48;;;;;;;3.38;0.38;;;;;;;7.05;97.48;95829.47;5021828;28;20045;-62
2023/04/01 06:38:29;;;;;;;1.65;0.30;;;;;;;6.99;97.37;95839.41;5014864;28;20140;-60
2023/04/01 06:41:16;;;;;;;2.15;0.52;;;;;;;6.96;98.22;95837.28;5018199;28;20124;-60
2023/04/01 06:43:48;;;;;;;2.30;0.60;;;;;;;7.00;99.20;95832.94;5017663;28;20148;-61
2023/04/01 06:46:29;;;;;;;1.77;0.50;;;;;;;6.95;99.33;95832.94;5024885;28;20135;-61
2023/04/01 06:49:49;;;;;;;2.35;0.50;;;;;;;6.89;100.00;95832.94;5026999;28;20059;-60
2023/04/01 06:52:57;;;;;;;1.60;0.30;;;;;;;6.99;99.70;95834.84;5028017;28;20674;-59
2023/04/01 06:55:46;;;;;;;1.63;0.50;;;;;;;6.93;100.00;95829.72;5018745;28;20697;-61
2023/04/01 06:58:41;;;;;;;1.20;0.40;;;;;;;6.86;100.00;95830.78;5011566;28;20056;-61
2023/04/01 07:01:24;;;;;;;2.08;0.38;;;;;;;6.94;100.00;95837.53;5025106;28;20055;-61
2023/04/01 07:03:55;;;;;;;1.50;0.47;;;;;;;6.88;100.00;95835.91;5025364;28;20056;-60
2023/04/01 07:06:36;;;;;;;;;;;;;;;6.91;100.00;95838.06;5021771;28;20050;-61
2023/04/01 07:09:12;;;;;;;2.17;0.95;;;;;;;6.81;100.00;95840.75;5043842;28;19936;-60
2023/04/01 07:12:02;;;;;;;1.92;0.47;;;;;;;6.88;100.00;95847.47;5025731;28;20477;-60
2023/04/01 07:15:13;;;;;;;3.55;0.50;;;;;;;6.83;100.00;95847.47;4964438;28;20541;-61
2023/04/01 07:17:42;;;;;;;1.90;0.50;;;;;;;6.93;100.00;95846.66;5005949;28;20386;-61
2023/04/01 07:20:19;;;;;;;2.15;0.77;;;;;;;7.00;100.00;95849.09;5023610;28;20040;-61
2023/04/01 07:22:50;;;;;;;2.05;0.70;;;;;;;6.86;100.00;95844.22;5020920;28;20635;-60
2023/04/01 07:25:35;;;;;;;1.20;0.40;;;;;;;6.88;100.00;95846.66;5013797;28;20051;-60
2023/04/01 07:28:21;;;;;;;2.10;0.70;;;;;;;6.81;100.00;95843.44;5019759;28;20052;-61
2023/04/01 07:31:37;;;;;;;1.48;0.50;;;;;;;6.86;100.00;95849.63;5015015;28;20422;-61
2023/04/01 07:34:26;;;;;;;1.58;0.57;;;;;;;7.01;100.00;95848.84;5014515;28;20091;-62
2023/04/01 07:37:16;;;;;;;1.30;0.60;;;;;;;7.05;100.00;95851.81;5024276;28;20757;-60
2023/04/01 07:40:21;;;;;;;1.63;1.10;;;;;;;7.07;100.00;95848.88;5039593;28;20176;-62
2023/04/01 07:43:07;;;;;;;1.05;0.40;;;;;;;7.25;100.00;95855.59;5028316;28;20056;-62
2023/04/01 07:46:00;;;;;;;2.08;0.57;;;;;;;7.40;100.00;95857.50;5025455;28;20091;-62
2023/04/01 07:48:38;;;;;;;2.35;0.68;;;;;;;7.25;100.00;95847.53;5001068;28;20050;-61
2023/04/01 07:51:24;;;;;;;0.47;0.22;;;;;;;7.28;100.00;95866.66;5021301;28;20044;-61
2023/04/01 07:54:12;;;;;;;0.88;0.30;;;;;;;7.37;100.00;95866.91;5022979;28;20053;-61
2023/04/01 07:57:02;;;;;;;1.83;0.47;;;;;;;7.40;100.00;95865.56;5042543;28;20420;-60
2023/04/01 08:00:01;;;;;;;1.10;0.30;;;;;;;7.30;100.00;95861.00;5026231;28;20099;-61
2023/04/01 08:03:00;;;;;;;2.08;0.57;;;;;;;7.30;100.00;95866.41;5030395;28;20134;-62
2023/04/01 08:05:46;;;;;;;1.52;0.40;;;;;;;7.31;100.00;95870.69;5022004;28;20046;-62
2023/04/01 08:08:39;;;;;;;2.47;0.40;;;;;;;7.40;100.00;95871.78;5016109;28;20045;-61
2023/04/01 08:11:59;;;;;;;1.38;0.40;;;;;;;7.50;99.01;95870.16;5014163;28;20169;-61
2023/04/01 08:14:52;;;;;;;2.33;0.60;;;;;;;7.33;100.00;95873.91;5013158;28;20536;-62
2023/04/01 08:18:06;;;;;;;1.33;0.57;;;;;;;7.54;100.00;95873.94;5020113;28;20055;-62
2023/04/01 08:20:43;;;;;;;1.60;0.47;;;;;;;7.44;100.00;95880.13;5015987;28;20599;-63
2023/04/01 08:23:15;;;;;;;0.98;0.50;;;;;;;7.49;100.00;95877.41;5018404;28;20057;-62
2023/04/01 08:26:08;;;;;;;1.23;0.40;;;;;;;7.32;100.00;95880.38;5029064;28;20053;-60
2023/04/01 08:28:51;;;;;;;1.25;0.60;;;;;;;7.13;100.00;95872.84;5033370;28;20068;-62
2023/04/01 08:31:31;;;;;;;1.60;0.50;;;;;;;7.13;100.00;95875.53;5031162;28;20041;-60
2023/04/01 08:33:57;;;;;;;2.17;0.70;;;;;;;6.91;100.00;95873.03;5019401;28;20041;-61
2023/04/01 08:36:32;;;;;;;2.85;0.80;;;;;;;6.94;100.00;95874.38;5026619;28;20056;-62
2023/04/01 08:39:20;;;;;;;1.58;0.50;;;;;;;6.98;100.00;95888.94;5022655;28;20041;-61
2023/04/01 08:42:31;;;;;;;1.67;0.50;;;;;;;6.95;100.00;95874.13;5022811;28;20052;-60
2023/04/01 08:45:41;;;;;;;3.05;0.82;;;;;;;6.96;100.00;95880.34;5025292;28;20042;-62
2023/04/01 08:48:08;;;;;;;2.95;0.50;;;;;;;6.98;100.00;95880.88;5023103;28;20048;-61
2023/04/01 08:50:42;;;;;;;3.83;0.77;;;;;;;6.99;100.00;95877.91;5020592;28;20450;-61
2023/04/01 08:53:34;;;;;;;0.88;0.40;;;;;;;7.03;100.00;95870.91;5024286;28;20054;-61
2023/04/01 08:56:22;;;;;;;4.03;0.40;;;;;;;7.18;100.00;95865.84;5019741;28;20045;-61
2023/04/01 08:59:07;;;;;;;0.83;0.37;;;;;;;7.34;100.00;95867.44;5024464;28;20050;-62
2023/04/01 09:01:51;;;;;;;1.73;0.50;;;;;;;7.59;100.00;95876.63;5023587;28;20038;-61
2023/04/01 09:04:46;;;;;;;2.90;0.60;;;;;;;7.69;100.00;95870.41;5026843;28;20135;-62
2023/04/01 09:07:31;;;;;;;1.23;0.40;;;;;;;7.85;100.00;95873.91;5017144;28;20041;-61
2023/04/01 09:10:18;;;;;;;0.77;0.47;;;;;;;8.15;100.00;95868.75;5014850;28;20122;-61
2023/04/01 09:13:06;;;;;;;1.42;0.60;;;;;;;7.99;100.00;95873.38;5029758;28;20502;-61
2023/04/01 09:15:51;;;;;;;0.75;0.30;;;;;;;8.26;98.51;95872.22;5027476;28;20053;-62
2023/04/01 09:18:35;;;;;;;1.30;0.30;;;;;;;8.11;99.77;95876.56;5021080;28;20041;-60
2023/04/01 09:21:11;;;;;;;0.47;0.20;;;;;;;8.14;97.86;95876.00;5016737;28;20041;-62
2023/04/01 09:23:58;;;;;;;1.10;0.25;;;;;;;8.02;95.82;95887.09;5019147;28;20045;-62
2023/04/01 09:26:47;;;;;;;0.85;0.28;;;;;;;8.10;95.24;95880.34;5013909;28;20707;-61
2023/04/01 09:29:41;;;;;;;0.85;0.38;;;;;;;8.15;97.43;95874.13;5017278;28;20107;-61
2023/04/01 09:32:27;;;;;;;0.25;0.13;;;;;;;8.28;95.45;95880.84;5017694;28;20046;-61
2023/04/01 09:35:30;;;;;;;0.40;0.10;;;;;;;7.95;94.38;95891.94;5020733;28;20560;-61
2023/04/01 09:38:19;;;;;;;1.88;0.20;;;;;;;7.84;94.49;95888.47;5017253;28;20052;-60
2023/04/01 09:40:59;;;;;;;0.38;0.20;;;;;;;7.87;94.85;95882.53;5016874;28;20057;-61
2023/04/01 09:44:03;;;;;;;0.22;0.20;;;;;;;8.17;93.01;95890.84;5025441;28;20049;-59
2023/04/01 09:46:52;;;;;;;1.13;0.30;;;;;;;8.07;93.76;95900.56;5017071;28;20048;-61
2023/04/01 09:50:10;;;;;;;0.10;0.10;;;;;;;7.96;94.29;95876.59;5022610;28;20045;-61
2023/04/01 09:53:00;;;;;;;0.10;0.10;;;;;;;8.10;92.44;95901.13;5014506;28;20053;-61
2023/04/01 09:55:45;;;;;;;0.20;0.10;;;;;;;8.26;91.58;95893.78;5029325;28;20048;-61
2023/04/01 09:58:50;;;;;;;0.20;0.10;;;;;;;8.19;92.40;95894.88;5026779;28;20474;-61
2023/04/01 10:02:09;;;;;;;0.75;0.30;;;;;;;8.37;93.54;95889.97;5028102;28;20068;-61
2023/04/01 10:05:01;;;;;;;0.30;0.20;;;;;;;8.55;92.35;95885.13;5028518;28;20111;-61
2023/04/01 10:07:49;;;;;;;0.47;0.20;;;;;;;8.95;93.04;95898.69;5026421;28;20060;-62
2023/04/01 10:10:28;;;;;;;0.10;0.10;;;;;;;9.13;89.89;95883.75;5020244;28;20073;-61
2023/04/01 10:13:20;;;;;;;0.80;0.28;;;;;;;9.13;91.00;95896.44;5028779;28;20397;-61
2023/04/01 10:16:13;;;;;;;0.00;0.00;;;;;;;8.81;91.09;95902.00;5022091;28;20050;-61
2023/04/01 10:18:45;;;;;;;0.75;0.25;;;;;;;8.74;90.86;95920.38;5025586;28;20079;-61
2023/04/01 10:21:28;;;;;;;0.68;0.30;;;;;;;8.75;90.74;95913.91;5025385;28;20598;-61
2023/04/01 10:24:07;;;;;;;0.10;0.10;;;;;;;8.51;90.06;95909.09;5030146;28;20041;-61
2023/04/01 10:27:03;;;;;;;0.70;0.20;;;;;;;8.50;92.00;95902.09;5023670;28;20052;-61
2023/04/01 10:30:14;;;;;;;1.65;0.50;;;;;;;8.46;91.01;95909.94;5003017;28;20052;-61
2023/04/01 10:33:17;;;;;;;0.50;0.10;;;;;;;8.31;90.03;95915.34;5022315;28;20151;-62
2023/04/01 10:36:24;;;;;;;0.38;0.10;;;;;;;8.43;90.42;95909.66;5036981;28;20451;-61
2023/04/01 10:39:10;;;;;;;0.88;0.30;;;;;;;8.59;89.44;95923.94;5021867;28;20107;-61
2023/04/01 10:41:45;;;;;;;0.90;0.10;;;;;;;8.75;90.54;95907.69;5022195;28;20045;-61
2023/04/01 10:44:46;;;;;;;0.65;0.20;;;;;;;8.62;92.12;95915.28;5021112;28;20128;-58
2023/04/01 10:48:02;;;;;;;0.10;0.10;;;;;;;8.77;88.95;95914.41;5022847;28;20132;-61
2023/04/01 10:51:04;;;;;;;0.10;0.10;;;;;;;8.63;88.94;95913.41;4996532;28;20041;-63
2023/04/01 10:53:45;;;;;;;0.13;0.10;;;;;;;8.61;89.30;95910.97;5018300;28;20068;-61
2023/04/01 10:56:48;;;;;;;0.05;0.05;;;;;;;8.88;88.47;95915.19;5017661;28;20119;-63
2023/04/01 11:00:02;;;;;;;0.10;0.10;;;;;;;9.06;86.92;95929.13;5024522;28;20428;-66
2023/04/01 11:03:03;;;;;;;0.75;0.10;;;;;;;9.13;86.43;95912.66;5027519;28;20068;-68
2023/04/01 11:06:16;;;;;;;0.10;0.10;;;;;;;8.99;87.71;95921.34;5015628;28;20095;-65
2023/04/01 11:08:52;;;;;;;0.10;0.10;;;;;;;9.17;86.16;95917.19;5028087;28;20468;-63
2023/04/01 11:11:28;;;;;;;0.10;0.10;;;;;;;9.03;86.15;95922.41;5020869;28;20133;-63
2023/04/01 11:14:22;;;;;;;0.55;0.10;;;;;;;9.05;84.14;95933.75;5024287;28;20136;-62
2023/04/01 11:17:15;;;;;;;0.22;0.10;;;;;;;9.22;85.77;95927.19;5030611;28;20044;-63
2023/04/01 11:20:05;;;;;;;0.10;0.10;;;;;;;9.39;85.10;95926.78;5022284;28;20428;-62
2023/04/01 11:22:51;;;;;;;0.68;0.13;;;;;;;9.58;84.97;95932.34;5024500;28;20652;-61
2023/04/01 11:25:29;;;;;;;1.00;0.25;;;;;;;9.37;85.07;95920.88;5026848;28;20152;-62
2023/04/01 11:28:43;;;;;;;0.08;0.08;;;;;;;9.59;84.47;95928.53;5029547;28;20056;-62
2023/04/01 11:31:36;;;;;;;0.08;0.08;;;;;;;9.53;84.72;95932.38;5026725;28;20049;-58
2023/04/01 11:34:43;;;;;;;0.17;0.10;;;;;;;9.30;84.38;95923.06;5023009;28;20053;-62
2023/04/01 11:37:21;;;;;;;0.17;0.17;;;;;;;9.09;86.12;95933.97;4945709;28;20056;-62
2023/04/01 11:40:24;;;;;;;0.38;0.30;;;;;;;9.18;85.05;95943.13;5023610;28;20076;-63
2023/04/01 11:43:37;;;;;;;0.10;0.10;;;;;;;8.95;85.14;95937.28;5024881;28;20046;-62
2023/04/01 11:46:52;;;;;;;0.22;0.10;;;;;;;9.00;85.54;95943.75;5022705;28;20059;-62
2023/04/01 11:49:56;;;;;;;0.50;0.10;;;;;;;9.22;84.22;95946.88;5026447;28;20581;-59
2023/04/01 11:52:59;;;;;;;0.15;0.08;;;;;;;9.13;84.49;95953.94;5023471;28;21027;-62
2023/04/01 11:56:00;;;;;;;0.47;0.20;;;;;;;9.08;85.29;95956.69;5027877;28;20079;-61
2023/04/01 11:58:51;;;;;;;0.40;0.10;;;;;;;9.03;85.32;95957.50;5029431;28;20037;-63
2023/04/01 12:01:36;;;;;;;0.30;0.10;;;;;;;9.18;84.23;95972.81;5027192;28;20643;-62
2023/04/01 12:04:36;;;;;;;0.30;0.10;;;;;;;8.95;85.81;95958.88;5013728;28;20048;-61
2023/04/01 12:07:15;;;;;;;0.88;0.50;;;;;;;9.06;84.50;95953.44;5023483;28;20041;-60
2023/04/01 12:10:12;;;;;;;0.10;0.10;;;;;;;9.03;83.90;95956.72;5023992;28;20076;-59
2023/04/01 12:13:07;;;;;;;0.28;0.20;;;;;;;9.20;85.63;95957.16;5010209;28;20080;-58
2023/04/01 12:15:58;;;;;;;0.17;0.10;;;;;;;9.22;82.77;95943.38;5017958;28;20041;-62
2023/04/01 12:18:41;;;;;;;0.17;0.10;;;;;;;9.12;84.17;95968.53;5024623;28;20045;-61
2023/04/01 12:21:27;;;;;;;0.40;0.10;;;;;;;9.07;84.45;95966.66;5025913;28;20307;-61
2023/04/01 12:24:10;;;;;;;0.15;0.10;;;;;;;9.28;82.54;95966.56;5021673;28;20120;-61
2023/04/01 12:26:46;;;;;;;0.50;0.50;;;;;;;9.23;82.89;95964.72;5023490;28;20069;-61
2023/04/01 12:29:38;;;;;;;0.68;0.13;;;;;;;9.21;82.00;95972.28;5031177;28;20034;-61
2023/04/01 12:32:43;;;;;;;0.20;0.17;;;;;;;9.02;83.32;95958.59;5023326;28;20042;-61
2023/04/01 12:35:15;;;;;;;0.47;0.17;;;;;;;9.02;84.34;95969.38;5030784;28;20539;-61
2023/04/01 12:37:51;;;;;;;0.10;0.10;;;;;;;8.97;83.42;95972.94;5025564;28;20049;-60
2023/04/01 12:40:46;;;;;;;0.40;0.10;;;;;;;9.33;82.37;95979.25;5029951;28;20140;-60
2023/04/01 12:43:41;;;;;;;0.20;0.10;;;;;;;9.35;83.43;95982.47;5027873;28;20042;-58
2023/04/01 12:46:32;;;;;;;0.38;0.20;;;;;;;9.43;83.42;95968.38;5020439;28;20054;-60
2023/04/01 12:49:28;;;;;;;0.00;0.00;;;;;;;9.37;83.24;95974.91;5022170;28;20045;-59
2023/04/01 12:52:05;;;;;;;0.00;0.00;;;;;;;9.16;81.76;95980.41;5019617;28;20711;-60
2023/04/01 12:54:53;;;;;;;0.00;0.00;;;;;;;9.24;82.62;95987.94;5022366;28;20172;-61
2023/04/01 12:57:34;;;;;;;0.00;0.00;;;;;;;9.20;82.81;95986.88;5030591;28;20120;-61
2023/04/01 13:00:24;;;;;;;0.20;0.10;;;;;;;9.05;83.52;95987.75;5020176;28;20119;-61